Terminal Aerodrome Forecast
Issued by NWS Portland, OR

Home | Current Version | Previous Version | Text Only | Print | Product List | Glossary On
Versions: 1 2 3 4 5 6 7 8 9 10 11 12
000
FTUS46 KPQR 201120
TAFAST
TAF
KAST 201120Z 2012/2112 VRB03KT P6SM SCT060 OVC100
     FM202100 22010KT P6SM BKN050 OVC080
     FM210200 21015G22KT P6SM -RA OVC025
     FM210800 25018G22KT P6SM -RA BKN025 BKN040=

USA.gov is the U.S. government's official web portal to all federal, state and local government web resources and services.